Pagina principală
METAR-TAF:

METAR-TAF

Aeroporturi :

Tarawa, Kiribati

Latitudine: 01-21N, longitudine: 172-55E, elevație: 2 m

Observații meteo curente

Raportul a fost făcut în urmă cu 23 de minute, la 09:00 UTC
Vânt 8 kt de la Est
Temperatură 29°C
Umiditate 79%
Presiune 1009 hPa
Vizibilitate de 10 km sau mai mult
Nori puțini la o înălțime de 2000 picior
Nori fragmentați la o înălțime de 30000 picior

METAR: NGTA 170900Z 10008KT 9999 FEW020 BKN300 29/25 Q1009

Ora: 23:23 (09:23 UTC)

Prognoză

Raportul a fost făcut în urmă cu 4 ore și 5 de minute, la 05:18 UTC
Prognoză valabilă de la 17 ora 06 UTC la 18 ora 06 UTC
Vânt 8 kt de la Est
Vizibilitate de 10 km sau mai mult
Nori puțini la o înălțime de 1800 picior

TAF: NGTA 170518Z 1706/1806 10008KT 9999 FEW018

Observații și prognoze meteo pentru peste 4.000 de aeroporturi (rapoarte METAR și TAF).

Stațiile disponibile sunt reprezentate pe hartă prin puncte galbene și roșii.

Țineți indicatorul mouse-ului pe punctul dorit pentru a vedea denumirea stației.

Apoi, faceți clic pentru a vedea observațiile și prognozele meteorologice.

Pentru a schimba harta: Pentru mărire, faceți clic pe butoanele verzi cu cruce neagră; pentru micșorare, pe butonul verde cu o liniuță; pentru hărți învecinate, pe săgețile verzi.


METAR-TAF: